createdAt,value
2022-12-08T00:01:36.007Z,19.80
2022-12-08T00:04:04.826Z,18.60
2022-12-08T00:06:57.577Z,23.70
2022-12-08T00:09:39.513Z,25.80
2022-12-08T00:12:10.624Z,74.20
2022-12-08T00:14:41.667Z,39.70
2022-12-08T00:17:11.694Z,44.30
2022-12-08T00:19:40.754Z,34.00
2022-12-08T00:22:10.719Z,139.60
2022-12-08T00:24:40.290Z,51.10
2022-12-08T00:27:09.795Z,79.00
2022-12-08T00:29:37.977Z,217.80
2022-12-08T00:32:06.499Z,194.80
2022-12-08T00:34:35.252Z,83.80
2022-12-08T00:37:03.421Z,94.60
2022-12-08T00:39:32.006Z,304.50
2022-12-08T00:42:15.033Z,81.70
2022-12-08T00:44:45.278Z,282.30
2022-12-08T00:47:14.247Z,260.10
2022-12-08T00:49:42.455Z,77.90
2022-12-08T00:52:10.295Z,78.70
2022-12-08T00:54:38.814Z,60.80
2022-12-08T00:57:06.739Z,41.60
2022-12-08T00:59:34.482Z,38.40
2022-12-08T01:02:02.482Z,130.90
2022-12-08T01:04:30.549Z,66.70
2022-12-08T01:06:58.716Z,48.50
2022-12-08T01:09:26.924Z,84.40
2022-12-08T01:11:55.176Z,102.60
2022-12-08T01:14:23.245Z,118.00
2022-12-08T01:16:51.149Z,51.30
2022-12-08T01:19:19.391Z,87.30
2022-12-08T01:21:47.769Z,93.70
2022-12-08T01:24:18.852Z,186.80
2022-12-08T01:26:48.413Z,147.70
2022-12-08T01:29:16.593Z,66.60
2022-12-08T01:31:44.456Z,76.30
2022-12-08T01:34:12.943Z,43.20
2022-12-08T01:36:42.345Z,33.50
2022-12-08T01:39:18.715Z,34.20
2022-12-08T01:41:47.906Z,23.30
2022-12-08T01:44:15.883Z,32.50
2022-12-08T01:46:46.076Z,19.40
2022-12-08T01:49:22.788Z,17.10
2022-12-08T01:52:02.773Z,20.80
2022-12-08T01:54:36.249Z,22.10
2022-12-08T01:57:27.139Z,24.70
2022-12-08T02:00:08.759Z,35.80
2022-12-08T02:02:49.274Z,22.30
2022-12-08T02:05:19.136Z,34.90
2022-12-08T02:07:47.938Z,24.30
2022-12-08T02:10:20.963Z,22.90
2022-12-08T02:12:51.733Z,39.70
2022-12-08T02:15:23.780Z,80.50
2022-12-08T02:18:21.733Z,51.60
2022-12-08T02:20:56.275Z,323.30
2022-12-08T02:23:51.901Z,383.30
2022-12-08T02:26:44.953Z,100.80
2022-12-08T02:29:50.708Z,119.80
2022-12-08T02:32:24.313Z,59.20
2022-12-08T02:34:58.223Z,48.00
2022-12-08T02:37:37.659Z,57.70
2022-12-08T02:40:56.113Z,78.80
2022-12-08T02:43:35.825Z,112.50
2022-12-08T02:46:11.250Z,54.10
2022-12-08T02:48:40.092Z,46.90
2022-12-08T02:51:08.172Z,38.40
2022-12-08T02:53:36.997Z,32.40
2022-12-08T02:56:26.027Z,57.40
2022-12-08T02:59:23.994Z,34.10
2022-12-08T03:02:04.738Z,28.60
2022-12-08T03:04:54.859Z,33.70
2022-12-08T03:07:35.809Z,38.10
2022-12-08T03:10:11.278Z,25.60
2022-12-08T03:12:48.979Z,75.20
2022-12-08T03:15:20.524Z,22.40
2022-12-08T03:17:56.314Z,27.40
2022-12-08T03:20:27.817Z,27.80
2022-12-08T03:22:58.156Z,29.30
2022-12-08T03:25:29.919Z,27.30
2022-12-08T03:27:59.564Z,35.90
2022-12-08T03:30:31.642Z,37.90
2022-12-08T03:33:08.009Z,31.20
2022-12-08T03:35:39.713Z,20.40
2022-12-08T03:38:11.380Z,21.80
2022-12-08T03:40:40.365Z,29.70
2022-12-08T03:43:08.437Z,21.30
2022-12-08T03:45:36.619Z,41.60
2022-12-08T03:48:04.895Z,23.90
2022-12-08T03:50:32.755Z,21.50
2022-12-08T03:53:01.237Z,22.60
2022-12-08T03:55:29.208Z,26.00
2022-12-08T03:57:57.155Z,24.40
2022-12-08T04:00:25.149Z,25.60
2022-12-08T04:02:53.064Z,18.60
2022-12-08T04:05:21.213Z,18.10
2022-12-08T04:07:49.297Z,25.70
2022-12-08T04:10:17.648Z,26.70
2022-12-08T04:12:45.715Z,21.70
2022-12-08T04:15:13.785Z,19.40
2022-12-08T04:17:41.659Z,18.50
2022-12-08T04:20:10.243Z,17.60
2022-12-08T04:22:38.207Z,18.60
2022-12-08T04:25:07.186Z,17.20
2022-12-08T04:27:35.071Z,18.30
2022-12-08T04:30:03.622Z,18.20
2022-12-08T04:32:32.038Z,17.80
2022-12-08T04:34:59.905Z,18.20
2022-12-08T04:37:28.731Z,15.30
2022-12-08T04:39:56.556Z,16.30
2022-12-08T04:42:24.526Z,14.50
2022-12-08T04:44:52.400Z,16.10
2022-12-08T04:47:22.329Z,13.80
2022-12-08T04:49:50.266Z,13.30
2022-12-08T04:52:18.076Z,13.30
2022-12-08T04:54:46.105Z,15.30
2022-12-08T04:57:14.402Z,24.00
2022-12-08T04:59:42.261Z,22.80
2022-12-08T05:02:10.579Z,18.80
2022-12-08T05:04:39.007Z,21.40
2022-12-08T05:07:07.178Z,21.40
2022-12-08T05:09:35.273Z,22.80
2022-12-08T05:12:04.250Z,26.70
2022-12-08T05:14:32.173Z,31.40
2022-12-08T05:17:02.608Z,28.80
2022-12-08T05:19:34.213Z,22.30
2022-12-08T05:22:02.288Z,22.40
2022-12-08T05:24:30.461Z,24.60
2022-12-08T05:26:58.234Z,26.10
2022-12-08T05:29:26.200Z,21.30
2022-12-08T05:31:54.228Z,18.80
2022-12-08T05:34:22.180Z,16.90
2022-12-08T05:36:50.111Z,19.80
2022-12-08T05:39:18.484Z,16.20
2022-12-08T05:41:46.459Z,14.40
2022-12-08T05:44:14.256Z,15.90
2022-12-08T05:46:42.348Z,16.00
2022-12-08T05:49:10.473Z,12.90
2022-12-08T05:51:38.318Z,15.80
2022-12-08T05:54:06.207Z,20.10
2022-12-08T05:56:34.323Z,12.70
2022-12-08T05:59:04.995Z,13.70
2022-12-08T06:01:33.513Z,14.90
2022-12-08T06:04:04.011Z,17.80
2022-12-08T06:06:35.641Z,20.50
2022-12-08T06:09:05.182Z,15.90
2022-12-08T06:11:33.684Z,17.50
2022-12-08T06:14:02.052Z,20.30
2022-12-08T06:16:30.758Z,24.60
2022-12-08T06:18:58.706Z,28.80
2022-12-08T06:21:26.882Z,23.30
2022-12-08T06:23:55.269Z,18.50
2022-12-08T06:26:23.845Z,16.20
2022-12-08T06:28:52.116Z,16.50
2022-12-08T06:31:22.669Z,16.30
2022-12-08T06:33:51.135Z,14.50
2022-12-08T06:36:22.729Z,16.10
2022-12-08T06:38:51.164Z,18.40
2022-12-08T06:41:19.134Z,20.40
2022-12-08T06:43:47.826Z,20.50
2022-12-08T06:46:18.916Z,23.30
2022-12-08T06:48:47.861Z,18.10
2022-12-08T06:51:18.672Z,22.80
2022-12-08T06:53:47.492Z,20.80
2022-12-08T06:56:16.282Z,20.80
2022-12-08T06:58:48.938Z,20.70
2022-12-08T07:01:20.671Z,22.20
2022-12-08T07:03:48.782Z,21.30
2022-12-08T07:06:23.066Z,23.80
2022-12-08T07:08:51.277Z,18.80
2022-12-08T07:11:22.299Z,21.80
2022-12-08T07:13:51.215Z,20.40
2022-12-08T07:16:19.795Z,17.60
2022-12-08T07:18:48.810Z,16.30
2022-12-08T07:21:17.487Z,19.20
2022-12-08T07:23:49.250Z,16.90
2022-12-08T07:26:19.666Z,15.40
2022-12-08T07:28:47.529Z,15.70
2022-12-08T07:31:21.932Z,15.90
2022-12-08T07:33:53.135Z,16.40
2022-12-08T07:36:22.097Z,24.50
2022-12-08T07:38:51.164Z,21.90
2022-12-08T07:41:23.544Z,27.90
2022-12-08T07:43:53.936Z,23.60
2022-12-08T07:46:24.020Z,31.20
2022-12-08T07:48:53.647Z,43.50
2022-12-08T07:51:21.691Z,37.90
2022-12-08T07:53:54.067Z,28.50
2022-12-08T07:56:23.681Z,30.60
2022-12-08T07:58:51.642Z,30.80
2022-12-08T08:01:31.352Z,35.10
2022-12-08T08:04:02.050Z,42.70
2022-12-08T08:06:31.654Z,76.20
2022-12-08T08:08:59.695Z,57.10
2022-12-08T08:11:27.765Z,32.30
2022-12-08T08:13:57.290Z,24.80
2022-12-08T08:16:25.267Z,59.10
2022-12-08T08:18:54.018Z,54.40
2022-12-08T08:21:44.941Z,34.50
2022-12-08T08:24:10.913Z,63.90
2022-12-08T08:26:39.758Z,29.40
2022-12-08T08:29:07.731Z,50.70
2022-12-08T08:31:35.656Z,56.50
2022-12-08T08:34:06.491Z,30.80
2022-12-08T08:36:34.718Z,53.80
2022-12-08T08:39:04.175Z,29.90
2022-12-08T08:41:32.845Z,29.50
2022-12-08T08:44:01.487Z,50.00
2022-12-08T08:46:29.728Z,109.60
2022-12-08T08:48:58.354Z,48.30
2022-12-08T08:51:26.620Z,34.10
2022-12-08T08:53:54.591Z,40.60
2022-12-08T08:56:22.565Z,28.60
2022-12-08T08:58:52.413Z,41.80
2022-12-08T09:01:24.627Z,44.50
2022-12-08T09:03:53.128Z,51.00
2022-12-08T09:06:21.741Z,59.90
2022-12-08T09:08:50.715Z,46.00
2022-12-08T09:11:18.852Z,42.80
2022-12-08T09:13:51.150Z,60.20
2022-12-08T09:16:19.711Z,45.90
2022-12-08T09:18:49.663Z,49.50
2022-12-08T09:21:22.953Z,41.40
2022-12-08T09:23:53.754Z,51.30
2022-12-08T09:26:23.396Z,43.10
2022-12-08T09:28:53.525Z,42.40
2022-12-08T09:31:23.449Z,49.70
2022-12-08T09:33:54.680Z,72.20
2022-12-08T09:36:23.077Z,57.60
2022-12-08T09:38:53.581Z,59.10
2022-12-08T09:41:42.045Z,53.70
2022-12-08T09:44:47.753Z,73.90
2022-12-08T09:47:18.655Z,81.50
2022-12-08T09:49:58.444Z,75.70
2022-12-08T09:52:32.479Z,44.80
2022-12-08T09:55:09.785Z,123.00
2022-12-08T09:57:37.744Z,131.30
2022-12-08T10:00:07.210Z,99.10
2022-12-08T10:02:35.531Z,93.80
2022-12-08T10:05:03.822Z,140.20
2022-12-08T10:08:00.840Z,119.70
2022-12-08T10:11:04.787Z,226.10
2022-12-08T10:14:04.213Z,129.00
2022-12-08T10:16:40.576Z,135.90
2022-12-08T10:19:21.524Z,185.30
2022-12-08T10:21:50.931Z,220.90
2022-12-08T10:24:34.643Z,125.30
2022-12-08T10:27:03.346Z,205.90
2022-12-08T10:29:31.340Z,119.20
2022-12-08T10:32:00.212Z,149.10
2022-12-08T10:34:28.179Z,106.30
2022-12-08T10:37:00.871Z,128.10
2022-12-08T10:39:29.754Z,106.30
2022-12-08T10:42:09.984Z,129.40
2022-12-08T10:44:51.599Z,95.40
2022-12-08T10:47:22.148Z,144.90
2022-12-08T10:50:28.913Z,95.80
2022-12-08T10:53:12.509Z,118.20
2022-12-08T10:55:52.716Z,76.90
2022-12-08T10:58:40.946Z,71.80
2022-12-08T11:01:13.581Z,60.20
2022-12-08T11:04:02.697Z,72.60
2022-12-08T11:06:34.868Z,61.90
2022-12-08T11:09:07.753Z,61.70
2022-12-08T11:11:46.977Z,52.90
2022-12-08T11:14:26.337Z,77.80
2022-12-08T11:17:03.274Z,62.10
2022-12-08T11:19:31.376Z,51.80
2022-12-08T11:21:59.402Z,58.60
2022-12-08T11:24:31.207Z,46.40
2022-12-08T11:27:06.644Z,42.80
2022-12-08T11:29:35.820Z,53.60
2022-12-08T11:32:11.755Z,39.00
2022-12-08T11:37:20.847Z,50.80
2022-12-08T11:39:55.357Z,106.90
2022-12-08T11:42:33.088Z,79.80
2022-12-08T11:45:17.223Z,52.80
2022-12-08T11:47:56.070Z,33.20
2022-12-08T11:50:55.755Z,41.00
2022-12-08T11:53:29.470Z,56.10
2022-12-08T11:56:03.992Z,74.80
2022-12-08T11:58:38.240Z,68.00
2022-12-08T12:01:06.134Z,47.80
2022-12-08T12:03:40.821Z,85.20
2022-12-08T12:06:54.281Z,157.40
2022-12-08T12:09:41.864Z,50.90
2022-12-08T12:13:01.041Z,79.50
2022-12-08T12:15:44.242Z,105.60
2022-12-08T12:18:27.402Z,48.70
2022-12-08T12:21:01.603Z,68.20
2022-12-08T12:23:56.612Z,90.80
2022-12-08T12:26:30.856Z,98.70
2022-12-08T12:29:04.942Z,62.70
2022-12-08T12:31:43.453Z,120.50
2022-12-08T12:34:18.702Z,113.60
2022-12-08T12:36:52.889Z,133.30
2022-12-08T12:39:25.882Z,57.20
2022-12-08T12:42:02.751Z,94.30
2022-12-08T12:44:33.308Z,175.80
2022-12-08T12:47:03.942Z,108.70
2022-12-08T12:49:38.064Z,96.10
2022-12-08T12:52:15.198Z,59.40
2022-12-08T12:54:44.890Z,100.40
2022-12-08T12:57:12.717Z,96.70
2022-12-08T12:59:55.872Z,100.60
2022-12-08T13:02:36.584Z,169.90
2022-12-08T13:05:29.872Z,146.70
2022-12-08T13:08:08.665Z,238.40
2022-12-08T13:10:39.342Z,68.00
2022-12-08T13:13:10.214Z,95.70
2022-12-08T13:15:49.148Z,244.30
2022-12-08T13:18:21.643Z,84.60
2022-12-08T13:21:02.749Z,115.70
2022-12-08T13:23:51.249Z,63.50
2022-12-08T13:26:24.500Z,37.80
2022-12-08T13:28:58.718Z,33.50
2022-12-08T13:31:50.657Z,55.90
2022-12-08T13:34:39.335Z,137.10
2022-12-08T13:37:20.175Z,178.60
2022-12-08T13:40:03.774Z,198.30
2022-12-08T13:42:53.287Z,56.10
2022-12-08T13:46:12.166Z,65.40
2022-12-08T13:48:59.061Z,76.50
2022-12-08T13:57:26.656Z,157.70
2022-12-08T13:59:55.041Z,181.90
2022-12-08T14:02:42.171Z,159.30
2022-12-08T14:05:19.587Z,555.90
2022-12-08T14:07:53.463Z,348.90
2022-12-08T14:10:26.222Z,201.80
2022-12-08T14:13:01.503Z,250.00
2022-12-08T14:15:37.585Z,114.40
2022-12-08T14:18:23.199Z,117.30
2022-12-08T14:21:21.454Z,88.40
2022-12-08T14:23:50.106Z,92.50
2022-12-08T14:26:18.594Z,73.00
2022-12-08T14:28:46.746Z,64.40
2022-12-08T14:31:15.011Z,59.90
2022-12-08T14:33:43.380Z,51.00
2022-12-08T14:36:21.154Z,41.30
2022-12-08T14:38:56.860Z,50.60
2022-12-08T14:41:28.248Z,38.40
2022-12-08T14:44:01.648Z,44.60
2022-12-08T14:46:29.671Z,52.30
2022-12-08T14:48:58.977Z,47.20
2022-12-08T14:51:30.984Z,50.30
2022-12-08T14:54:15.504Z,48.60
2022-12-08T14:56:51.912Z,55.00
2022-12-08T14:59:34.260Z,46.60
2022-12-08T15:02:31.023Z,48.40
2022-12-08T15:05:04.512Z,53.60
2022-12-08T15:07:49.160Z,70.00
2022-12-08T15:10:17.163Z,63.60
2022-12-08T15:13:04.939Z,59.80
2022-12-08T15:15:52.769Z,57.30
2022-12-08T15:18:39.117Z,70.90
2022-12-08T15:21:10.108Z,55.10
2022-12-08T15:23:44.920Z,64.10
2022-12-08T15:26:28.075Z,64.50
2022-12-08T15:28:56.005Z,64.40
2022-12-08T15:31:23.923Z,57.50
2022-12-08T15:33:52.046Z,60.20
2022-12-08T15:36:19.896Z,60.80
2022-12-08T15:38:47.756Z,74.90
2022-12-08T15:41:15.630Z,80.40
2022-12-08T15:43:43.608Z,81.30
2022-12-08T15:46:12.172Z,92.40
2022-12-08T15:48:41.187Z,80.50
2022-12-08T15:51:09.049Z,88.40
2022-12-08T15:53:36.850Z,88.40
2022-12-08T15:58:57.369Z,262.70
2022-12-08T16:01:26.884Z,90.50
2022-12-08T16:09:40.800Z,92.30
2022-12-08T16:18:18.764Z,66.20
2022-12-08T16:23:43.138Z,89.50
2022-12-08T16:26:44.342Z,105.20
2022-12-08T16:29:07.380Z,132.90
2022-12-08T16:31:35.484Z,132.50
2022-12-08T16:34:03.526Z,102.60
2022-12-08T16:36:31.900Z,114.80
2022-12-08T16:39:00.103Z,118.70
2022-12-08T16:41:46.680Z,121.60
2022-12-08T16:44:14.448Z,107.40
2022-12-08T16:46:42.317Z,106.40
2022-12-08T16:49:10.385Z,101.30
2022-12-08T16:51:38.468Z,93.70
2022-12-08T16:54:06.429Z,84.80
2022-12-08T16:56:34.349Z,90.30
2022-12-08T16:59:02.671Z,75.80
2022-12-08T17:01:30.828Z,67.60
2022-12-08T17:06:47.166Z,55.30
2022-12-08T17:09:15.249Z,56.40
2022-12-08T17:11:44.087Z,84.30
2022-12-08T17:14:13.690Z,62.70
2022-12-08T17:16:42.631Z,49.70
2022-12-08T17:19:13.167Z,50.10
2022-12-08T17:21:41.863Z,48.50
2022-12-08T17:24:09.718Z,52.20
2022-12-08T17:26:37.512Z,40.40
2022-12-08T17:29:05.651Z,51.80
2022-12-08T17:31:34.213Z,60.60
2022-12-08T17:34:05.580Z,174.20
2022-12-08T17:36:33.557Z,84.90
2022-12-08T17:39:02.452Z,88.00
2022-12-08T17:41:30.714Z,89.00
2022-12-08T17:43:58.701Z,112.40
2022-12-08T17:46:27.178Z,95.60
2022-12-08T17:48:55.350Z,86.30
2022-12-08T17:51:23.123Z,343.20
2022-12-08T17:53:51.396Z,159.90
2022-12-08T17:56:21.404Z,112.40
2022-12-08T17:58:54.250Z,99.70
2022-12-08T18:01:23.733Z,338.60
2022-12-08T18:03:51.982Z,208.00
2022-12-08T18:06:20.669Z,419.40
2022-12-08T18:08:48.949Z,138.50
2022-12-08T18:11:19.725Z,212.40
2022-12-08T18:13:49.201Z,158.10
2022-12-08T18:16:18.619Z,165.10
2022-12-08T18:18:46.867Z,196.50
2022-12-08T18:21:21.469Z,130.20
2022-12-08T18:23:51.779Z,160.70
2022-12-08T18:26:20.603Z,567.20
2022-12-08T18:28:48.681Z,352.70
2022-12-08T18:31:22.461Z,178.20
2022-12-08T18:33:51.786Z,275.90
2022-12-08T18:36:22.828Z,246.90
2022-12-08T18:38:51.616Z,448.20
2022-12-08T18:41:26.207Z,262.10
2022-12-08T18:43:57.229Z,324.60
2022-12-08T18:46:25.649Z,360.90
2022-12-08T18:48:53.638Z,160.10
2022-12-08T18:51:23.714Z,122.70
2022-12-08T18:53:52.345Z,92.00
2022-12-08T18:56:29.523Z,107.80
2022-12-08T18:59:03.563Z,73.70
2022-12-08T19:01:34.184Z,70.20
2022-12-08T19:04:27.460Z,60.60
2022-12-08T19:06:53.464Z,52.10
2022-12-08T19:09:21.434Z,79.40
2022-12-08T19:11:49.605Z,54.00
2022-12-08T19:14:19.209Z,113.70
2022-12-08T19:16:51.567Z,89.30
2022-12-08T19:19:19.550Z,101.50
2022-12-08T19:21:47.647Z,376.30
2022-12-08T19:24:15.810Z,193.90
2022-12-08T19:26:44.046Z,220.80
2022-12-08T19:29:12.427Z,131.20
2022-12-08T19:31:41.141Z,161.20
2022-12-08T19:34:10.424Z,148.00
2022-12-08T19:36:42.597Z,311.50
2022-12-08T19:39:35.372Z,374.00
2022-12-08T19:42:27.825Z,182.80
2022-12-08T19:44:55.884Z,398.20
2022-12-08T19:47:25.935Z,253.90
2022-12-08T19:50:15.278Z,168.10
2022-12-08T19:52:44.190Z,198.50
2022-12-08T19:55:12.672Z,173.90
2022-12-08T19:57:41.127Z,186.40
2022-12-08T20:00:12.931Z,205.90
2022-12-08T20:02:40.903Z,95.80
2022-12-08T20:05:10.374Z,272.10
2022-12-08T20:07:38.624Z,190.60
2022-12-08T20:10:14.694Z,155.90
2022-12-08T20:15:10.813Z,106.80
2022-12-08T20:17:39.239Z,152.50
2022-12-08T20:20:08.359Z,93.20
2022-12-08T20:22:36.504Z,95.60
2022-12-08T20:25:04.673Z,56.10
2022-12-08T20:27:33.363Z,48.30
2022-12-08T20:30:01.443Z,68.50
2022-12-08T20:32:29.315Z,52.80
2022-12-08T20:34:57.450Z,55.70
2022-12-08T20:37:25.394Z,61.00
2022-12-08T20:39:53.373Z,83.60
2022-12-08T20:42:21.438Z,50.10
2022-12-08T20:44:49.590Z,159.50
2022-12-08T20:47:18.002Z,95.00
2022-12-08T20:49:47.481Z,106.00
2022-12-08T20:52:40.925Z,228.00
2022-12-08T21:03:58.731Z,352.10
2022-12-08T21:06:29.900Z,119.10
2022-12-08T21:08:58.058Z,205.20
2022-12-08T21:11:30.070Z,59.60
2022-12-08T21:13:57.939Z,92.40
2022-12-08T21:16:25.987Z,47.10
2022-12-08T21:18:54.142Z,45.80
2022-12-08T21:21:22.361Z,218.60
2022-12-08T21:23:50.441Z,179.60
2022-12-08T21:26:21.677Z,139.80
2022-12-08T21:28:49.533Z,154.40
2022-12-08T21:31:20.291Z,245.20
2022-12-08T21:33:48.841Z,119.70
2022-12-08T21:36:20.081Z,48.00
2022-12-08T21:38:48.355Z,44.20
2022-12-08T21:41:38.784Z,47.20
2022-12-08T21:44:10.253Z,43.20
2022-12-08T21:46:38.525Z,47.00
2022-12-08T21:49:07.084Z,55.50
2022-12-08T21:51:37.876Z,61.70
2022-12-08T21:54:05.855Z,79.50
2022-12-08T21:56:33.934Z,77.60
2022-12-08T21:59:01.812Z,57.00
2022-12-08T22:01:30.053Z,67.10
2022-12-08T22:03:58.883Z,63.10
2022-12-08T22:06:26.899Z,51.20
2022-12-08T22:08:56.680Z,51.70
2022-12-08T22:11:24.572Z,56.20
2022-12-08T22:13:52.687Z,44.10
2022-12-08T22:16:20.865Z,46.80
2022-12-08T22:18:48.757Z,47.90
2022-12-08T22:21:18.382Z,45.80
2022-12-08T22:23:46.703Z,46.40
2022-12-08T22:26:14.758Z,47.80
2022-12-08T22:28:43.671Z,50.80
2022-12-08T22:31:14.499Z,49.90
2022-12-08T22:33:43.728Z,44.00
2022-12-08T22:36:16.922Z,44.90
2022-12-08T22:38:45.318Z,45.50
2022-12-08T22:41:13.856Z,42.60
2022-12-08T22:43:42.438Z,43.70
2022-12-08T22:46:14.672Z,73.70
2022-12-08T22:48:42.942Z,63.70
2022-12-08T22:51:11.635Z,49.30
2022-12-08T22:53:39.702Z,56.70
2022-12-08T22:56:10.472Z,54.30
2022-12-08T22:58:40.041Z,59.60
2022-12-08T23:01:08.065Z,159.10
2022-12-08T23:03:36.117Z,154.20
2022-12-08T23:06:12.508Z,87.00
2022-12-08T23:08:40.710Z,62.10
2022-12-08T23:11:09.013Z,53.30
2022-12-08T23:13:38.254Z,51.40
2022-12-08T23:16:10.402Z,54.20
2022-12-08T23:18:41.647Z,54.10
2022-12-08T23:21:14.297Z,77.10
2022-12-08T23:23:42.183Z,61.20
2022-12-08T23:26:30.398Z,59.10
2022-12-08T23:28:59.568Z,73.70
2022-12-08T23:31:28.137Z,95.30
2022-12-08T23:33:56.559Z,70.20
2022-12-08T23:36:27.509Z,58.30
2022-12-08T23:38:55.523Z,73.70
2022-12-08T23:41:23.458Z,76.60
2022-12-08T23:43:51.933Z,73.70
2022-12-08T23:46:21.849Z,65.90
2022-12-08T23:48:51.353Z,54.80
2022-12-08T23:51:19.785Z,132.80
2022-12-08T23:53:47.761Z,195.30
2022-12-08T23:56:17.882Z,95.40
2022-12-08T23:58:46.145Z,40.20
